YSSY/SYD METAR and TAF weather

Enter ICAO airport designator
Station Type Date Time Source
YSSY METAR 2021/05/14 08:00 UTC NOAA

YSSY 140800Z 25020KT CAVOK 15/03 Q1013


Station Type Date Time Source
YSSY Decoded METAR 2021/05/14 08:00 UTC NOAA

Sydney Airport, Australia (YSSY) 33-57S 151-11E 3M
May 14, 2021 - 04:00 AM EDT / 2021.05.14 0800 UTC
Wind: from the WSW (250 degrees) at 23 MPH (20 KT):0
Visibility: greater than 7 mile(s):0
Temperature: 59 F (15 C)
Dew Point: 37 F (3 C)
Relative Humidity: 44%
Pressure (altimeter): 29.91 in. Hg (1013 hPa)
ob: YSSY 140800Z 25020KT CAVOK 15/03 Q1013
cycle: 8

Station Type Date Time Source
YSSY TAF 2021/05/14 06:33 UTC NOAA

TAF YSSY 140515Z 1406/1512 26015G25KT CAVOK
FM140900 27012KT CAVOK
FM141500 30010KT CAVOK
FM142300 29015G25KT CAVOK
FM150100 26020G30KT CAVOK
FM150900 25012KT CAVOK

Example: see airport list